Time;durP1;ratioP1;P1;durP2;ratioP2;P2;SDS_P1;SDS_P2;PMS_P1;PMS_P2;Temp;Humidity;BMP_temperature;BMP_pressure;BME280_temperature;BME280_humidity;BME280_pressure;Samples;Min_cycle;Max_cycle;Signal;HPM_P1;HPM_P2
2023/08/27 00:01:38;;;;;;;7.15;2.75;;;;;;;;;;4973801;28;20534;-83
2023/08/27 00:04:03;;;;;;;5.63;2.60;;;;;;;;;;4961266;29;20060;-81
2023/08/27 00:06:29;;;;;;;7.80;2.80;;;;;;;;;;4976786;28;20395;-82
2023/08/27 00:08:54;;;;;;;5.40;2.95;;;;;;;;;;4959456;29;20114;-83
2023/08/27 00:11:20;;;;;;;6.95;2.88;;;;;;;;;;4961654;29;20041;-82
2023/08/27 00:13:45;;;;;;;6.10;3.08;;;;;;;;;;4960042;28;20046;-83
2023/08/27 00:16:11;;;;;;;6.18;2.40;;;;;;;;;;4990348;28;20106;-81
2023/08/27 00:18:37;;;;;;;4.90;2.65;;;;;;;;;;4975286;28;20047;-82
2023/08/27 00:21:03;;;;;;;4.32;2.13;;;;;;;;;;4974762;28;20066;-83
2023/08/27 00:23:28;;;;;;;5.43;2.60;;;;;;;;;;4974212;28;20034;-83
2023/08/27 00:25:54;;;;;;;5.00;2.30;;;;;;;;;;4958560;29;20479;-83
2023/08/27 00:28:19;;;;;;;5.93;2.08;;;;;;;;;;4974450;28;20114;-82
2023/08/27 00:30:45;;;;;;;4.75;2.00;;;;;;;;;;4973753;28;20062;-84
2023/08/27 00:33:11;;;;;;;5.57;2.15;;;;;;;;;;4973151;28;20039;-82
2023/08/27 00:35:36;;;;;;;4.53;2.20;;;;;;;;;;4957267;29;20106;-81
2023/08/27 00:38:04;;;;;;;5.15;2.20;;;;;;;;;;4975932;28;20043;-82
2023/08/27 00:40:33;;;;;;;7.00;2.15;;;;;;;;;;4994053;28;20041;-82
2023/08/27 00:42:58;;;;;;;5.75;2.10;;;;;;;;;;4983759;28;20474;-83
2023/08/27 00:45:24;;;;;;;4.80;2.17;;;;;;;;;;4990267;28;20031;-82
2023/08/27 00:47:50;;;;;;;4.55;2.08;;;;;;;;;;4941921;29;20415;-82
2023/08/27 00:50:16;;;;;;;4.95;1.80;;;;;;;;;;4956174;29;20035;-82
2023/08/27 00:52:42;;;;;;;5.00;1.80;;;;;;;;;;4972201;28;20039;-82
2023/08/27 00:55:08;;;;;;;4.78;1.92;;;;;;;;;;4956763;29;20027;-82
2023/08/27 00:57:34;;;;;;;4.97;1.98;;;;;;;;;;4940860;29;20398;-81
2023/08/27 01:00:00;;;;;;;3.85;2.00;;;;;;;;;;4973388;28;20034;-82
2023/08/27 01:02:25;;;;;;;4.95;2.33;;;;;;;;;;4979885;28;20020;-82
2023/08/27 01:04:51;;;;;;;4.28;2.30;;;;;;;;;;4957866;29;20031;-82
2023/08/27 01:07:19;;;;;;;6.20;2.17;;;;;;;;;;4974145;28;20042;-83
2023/08/27 01:10:07;;;;;;;4.88;2.30;;;;;;;;;;4988928;28;20042;-82
2023/08/27 01:12:36;;;;;;;4.60;2.03;;;;;;;;;;4940848;29;20121;-82
2023/08/27 01:15:03;;;;;;;5.93;2.10;;;;;;;;;;4948022;29;20045;-82
2023/08/27 01:17:29;;;;;;;4.40;2.13;;;;;;;;;;4983280;28;20050;-83
2023/08/27 01:19:55;;;;;;;3.97;2.00;;;;;;;;;;4953449;29;20168;-83
2023/08/27 01:22:20;;;;;;;8.68;2.20;;;;;;;;;;4970197;29;20031;-82
2023/08/27 01:24:46;;;;;;;4.35;2.38;;;;;;;;;;4970901;28;20031;-81
2023/08/27 01:27:13;;;;;;;6.78;2.33;;;;;;;;;;4995178;28;20046;-81
2023/08/27 01:29:38;;;;;;;4.90;1.80;;;;;;;;;;4958079;29;20102;-83
2023/08/27 01:32:23;;;;;;;4.38;2.17;;;;;;;;;;4948768;29;20035;-82
2023/08/27 01:34:48;;;;;;;4.43;2.00;;;;;;;;;;4948215;29;20050;-82
2023/08/27 01:37:14;;;;;;;5.63;2.20;;;;;;;;;;4965752;29;20035;-84
2023/08/27 01:39:42;;;;;;;10.95;2.65;;;;;;;;;;4967715;29;20019;-84
2023/08/27 01:42:07;;;;;;;5.03;2.30;;;;;;;;;;4986631;28;20027;-83
2023/08/27 01:44:33;;;;;;;7.70;2.50;;;;;;;;;;4977840;28;20042;-83
2023/08/27 01:46:59;;;;;;;6.00;3.00;;;;;;;;;;4980036;28;20043;-82
2023/08/27 01:49:25;;;;;;;4.13;2.25;;;;;;;;;;4997028;28;20034;-82
2023/08/27 01:51:50;;;;;;;4.47;2.42;;;;;;;;;;4981067;28;20039;-82
2023/08/27 01:54:16;;;;;;;7.15;2.65;;;;;;;;;;4980849;28;20098;-81
2023/08/27 01:56:42;;;;;;;9.52;2.67;;;;;;;;;;4980275;28;20057;-80
2023/08/27 01:59:07;;;;;;;7.15;2.50;;;;;;;;;;4985028;28;20032;-83
2023/08/27 02:01:33;;;;;;;5.35;2.63;;;;;;;;;;4959846;29;20031;-81
2023/08/27 02:03:59;;;;;;;8.77;2.55;;;;;;;;;;4959935;28;20503;-84
2023/08/27 02:06:24;;;;;;;7.85;2.83;;;;;;;;;;4928832;29;20036;-81
2023/08/27 02:08:49;;;;;;;4.30;2.22;;;;;;;;;;4959991;29;20035;-81
2023/08/27 02:11:15;;;;;;;6.57;2.53;;;;;;;;;;4976664;28;20427;-81
2023/08/27 02:13:40;;;;;;;5.20;2.60;;;;;;;;;;4959835;29;20038;-81
2023/08/27 02:16:06;;;;;;;5.18;2.97;;;;;;;;;;4943987;29;20031;-80
2023/08/27 02:18:32;;;;;;;8.35;3.33;;;;;;;;;;4958998;29;20493;-84
2023/08/27 02:20:58;;;;;;;6.15;2.78;;;;;;;;;;4975767;28;20038;-82
2023/08/27 02:23:23;;;;;;;7.32;2.78;;;;;;;;;;4960776;28;20032;-82
2023/08/27 02:25:49;;;;;;;7.22;3.25;;;;;;;;;;4975469;28;20045;-81
2023/08/27 02:28:14;;;;;;;6.78;3.03;;;;;;;;;;4975006;28;20506;-83
2023/08/27 02:30:40;;;;;;;5.97;3.50;;;;;;;;;;4976337;28;20487;-82
2023/08/27 02:33:05;;;;;;;10.43;3.17;;;;;;;;;;4960370;29;20035;-83
2023/08/27 02:35:31;;;;;;;7.75;3.30;;;;;;;;;;4978016;28;20046;-82
2023/08/27 02:37:56;;;;;;;6.97;3.10;;;;;;;;;;4975442;28;20023;-82
2023/08/27 02:40:22;;;;;;;8.75;3.40;;;;;;;;;;4959327;29;20038;-82
2023/08/27 02:42:48;;;;;;;6.88;3.72;;;;;;;;;;4975153;28;20028;-84
2023/08/27 02:45:15;;;;;;;6.82;3.15;;;;;;;;;;4959790;29;20054;-83
2023/08/27 02:47:40;;;;;;;7.88;3.08;;;;;;;;;;4947025;29;20550;-83
2023/08/27 02:50:06;;;;;;;6.32;3.08;;;;;;;;;;4963082;29;20063;-82
2023/08/27 02:52:32;;;;;;;6.63;3.22;;;;;;;;;;4959371;29;20082;-83
2023/08/27 02:54:57;;;;;;;7.65;3.28;;;;;;;;;;4959260;29;20648;-82
2023/08/27 02:57:23;;;;;;;5.30;3.03;;;;;;;;;;4975000;28;20032;-81
2023/08/27 02:59:49;;;;;;;5.95;3.17;;;;;;;;;;4958713;29;20035;-82
2023/08/27 03:02:14;;;;;;;7.80;3.03;;;;;;;;;;4960484;29;20037;-82
2023/08/27 03:04:41;;;;;;;7.32;3.53;;;;;;;;;;4929919;29;20035;-83
2023/08/27 03:07:07;;;;;;;6.63;3.25;;;;;;;;;;4974994;28;20063;-82
2023/08/27 03:09:34;;;;;;;8.88;3.05;;;;;;;;;;4942925;29;20553;-82
2023/08/27 03:11:59;;;;;;;7.72;3.47;;;;;;;;;;4942631;29;20034;-83
2023/08/27 03:14:26;;;;;;;7.10;3.40;;;;;;;;;;4974446;28;20031;-84
2023/08/27 03:16:51;;;;;;;9.77;3.90;;;;;;;;;;4943927;29;20491;-83
2023/08/27 03:19:17;;;;;;;9.50;3.95;;;;;;;;;;4959201;29;20054;-82
2023/08/27 03:21:43;;;;;;;6.50;3.60;;;;;;;;;;4974975;28;20035;-83
2023/08/27 03:24:11;;;;;;;6.13;3.88;;;;;;;;;;4943562;29;20039;-84
2023/08/27 03:26:38;;;;;;;9.63;4.20;;;;;;;;;;4943321;29;20045;-83
2023/08/27 03:29:04;;;;;;;14.05;4.47;;;;;;;;;;4978514;28;20050;-80
2023/08/27 03:31:31;;;;;;;10.95;4.93;;;;;;;;;;4941895;29;20043;-83
2023/08/27 03:33:57;;;;;;;8.70;4.13;;;;;;;;;;4958287;29;20042;-82
2023/08/27 03:36:22;;;;;;;7.85;3.83;;;;;;;;;;4960143;28;20402;-81
2023/08/27 03:38:48;;;;;;;9.48;3.88;;;;;;;;;;4944551;29;20035;-83
2023/08/27 03:41:14;;;;;;;6.10;3.70;;;;;;;;;;4967435;28;20027;-84
2023/08/27 03:43:39;;;;;;;9.20;3.60;;;;;;;;;;4950149;29;20031;-82
2023/08/27 03:46:05;;;;;;;6.20;3.30;;;;;;;;;;4965902;29;20125;-82
2023/08/27 03:48:30;;;;;;;8.65;3.10;;;;;;;;;;4979028;28;20134;-83
2023/08/27 03:50:56;;;;;;;7.53;3.20;;;;;;;;;;4961903;28;20106;-83
2023/08/27 03:53:21;;;;;;;7.43;3.30;;;;;;;;;;4944468;29;20062;-82
2023/08/27 03:55:47;;;;;;;5.45;3.20;;;;;;;;;;4974320;28;20491;-83
2023/08/27 03:58:12;;;;;;;5.30;3.00;;;;;;;;;;4942395;29;20065;-82
2023/08/27 04:00:39;;;;;;;7.85;3.30;;;;;;;;;;4975798;28;20089;-82
2023/08/27 04:03:05;;;;;;;5.38;2.92;;;;;;;;;;4960106;29;20086;-83
2023/08/27 04:05:31;;;;;;;5.22;3.20;;;;;;;;;;4944340;29;20578;-82
2023/08/27 04:07:56;;;;;;;7.45;3.50;;;;;;;;;;4961344;29;20031;-82
2023/08/27 04:10:22;;;;;;;6.20;3.28;;;;;;;;;;4961208;28;20047;-82
2023/08/27 04:12:47;;;;;;;8.95;3.53;;;;;;;;;;4963229;29;20082;-82
2023/08/27 04:15:13;;;;;;;5.57;3.63;;;;;;;;;;4945818;29;20090;-81
2023/08/27 04:17:38;;;;;;;6.53;3.50;;;;;;;;;;4986516;28;20055;-82
2023/08/27 04:20:04;;;;;;;5.47;2.97;;;;;;;;;;4979615;28;20083;-82
2023/08/27 04:22:30;;;;;;;8.60;3.30;;;;;;;;;;4979787;28;20050;-83
2023/08/27 04:25:00;;;;;;;7.68;3.47;;;;;;;;;;4977690;28;20028;-83
2023/08/27 04:27:26;;;;;;;8.45;3.75;;;;;;;;;;4963181;28;20015;-83
2023/08/27 04:29:52;;;;;;;7.85;3.50;;;;;;;;;;4992372;28;20042;-81
2023/08/27 04:32:17;;;;;;;8.60;3.80;;;;;;;;;;4955658;29;20126;-82
2023/08/27 04:34:43;;;;;;;7.40;4.00;;;;;;;;;;4963274;29;20059;-82
2023/08/27 04:37:08;;;;;;;7.30;3.53;;;;;;;;;;4964342;29;20122;-82
2023/08/27 04:39:34;;;;;;;10.55;3.83;;;;;;;;;;4966666;29;20119;-81
2023/08/27 04:41:59;;;;;;;7.85;3.40;;;;;;;;;;4975521;28;20015;-82
2023/08/27 04:44:26;;;;;;;7.07;3.50;;;;;;;;;;4968921;29;20024;-82
2023/08/27 04:46:52;;;;;;;8.20;3.72;;;;;;;;;;4927536;29;20505;-82
2023/08/27 04:49:17;;;;;;;9.90;3.78;;;;;;;;;;4993175;28;20513;-82
2023/08/27 04:51:46;;;;;;;6.38;3.50;;;;;;;;;;4963756;28;20027;-82
2023/08/27 04:54:12;;;;;;;9.15;3.38;;;;;;;;;;4978436;28;20046;-82
2023/08/27 04:56:40;;;;;;;10.80;4.15;;;;;;;;;;4964512;28;20098;-82
2023/08/27 04:59:06;;;;;;;5.25;3.28;;;;;;;;;;4960900;29;20031;-83
2023/08/27 05:01:31;;;;;;;7.05;3.17;;;;;;;;;;4977405;28;20027;-84
2023/08/27 05:03:57;;;;;;;7.88;4.50;;;;;;;;;;4978077;28;20036;-82
2023/08/27 05:06:24;;;;;;;7.72;3.50;;;;;;;;;;4961375;29;20043;-81
2023/08/27 05:08:50;;;;;;;6.78;3.50;;;;;;;;;;4961320;29;20039;-83
2023/08/27 05:11:15;;;;;;;6.65;3.83;;;;;;;;;;4961175;29;20058;-83
2023/08/27 05:13:41;;;;;;;6.90;3.63;;;;;;;;;;4961878;28;20066;-83
2023/08/27 05:16:06;;;;;;;6.75;3.55;;;;;;;;;;4961030;29;20582;-81
2023/08/27 05:18:32;;;;;;;6.40;3.40;;;;;;;;;;4976343;28;20065;-82
2023/08/27 05:20:58;;;;;;;7.55;3.58;;;;;;;;;;4979163;28;20031;-82
2023/08/27 05:23:23;;;;;;;7.10;3.72;;;;;;;;;;4976466;28;20107;-82
2023/08/27 05:25:49;;;;;;;8.35;3.72;;;;;;;;;;4945343;29;20042;-82
2023/08/27 05:28:14;;;;;;;10.52;3.63;;;;;;;;;;4960629;29;20491;-82
2023/08/27 05:30:41;;;;;;;6.75;3.80;;;;;;;;;;4960670;29;20039;-82
2023/08/27 05:33:06;;;;;;;7.47;3.17;;;;;;;;;;4947631;29;20039;-82
2023/08/27 05:35:33;;;;;;;7.93;3.67;;;;;;;;;;4960371;29;20519;-82
2023/08/27 05:38:00;;;;;;;8.20;3.83;;;;;;;;;;4976315;28;20102;-81
2023/08/27 05:40:25;;;;;;;7.47;3.55;;;;;;;;;;4944101;29;20063;-81
2023/08/27 05:42:51;;;;;;;6.95;3.80;;;;;;;;;;4975777;28;20155;-82
2023/08/27 05:45:16;;;;;;;9.15;4.50;;;;;;;;;;4929298;29;20035;-81
2023/08/27 05:47:42;;;;;;;7.97;4.40;;;;;;;;;;4976437;28;20035;-82
2023/08/27 05:50:07;;;;;;;8.25;4.60;;;;;;;;;;4976365;28;20124;-80
2023/08/27 05:52:33;;;;;;;7.40;3.95;;;;;;;;;;4975595;28;20031;-82
2023/08/27 05:55:00;;;;;;;11.27;5.32;;;;;;;;;;4975384;28;20031;-82
2023/08/27 05:57:26;;;;;;;7.75;4.57;;;;;;;;;;4977976;28;20050;-83
2023/08/27 05:59:55;;;;;;;7.85;4.22;;;;;;;;;;4976110;28;20027;-81
2023/08/27 06:02:20;;;;;;;8.65;4.38;;;;;;;;;;4976389;28;20110;-81
2023/08/27 06:04:47;;;;;;;7.35;4.68;;;;;;;;;;4959382;29;20083;-82
2023/08/27 06:07:12;;;;;;;8.57;4.45;;;;;;;;;;4977965;28;20035;-82
2023/08/27 06:09:38;;;;;;;7.82;4.10;;;;;;;;;;4947734;29;20035;-80
2023/08/27 06:12:06;;;;;;;8.20;3.67;;;;;;;;;;4991960;28;20024;-81
2023/08/27 06:14:32;;;;;;;;;;;;;;;;;;4968677;28;20078;-82
2023/08/27 06:16:58;;;;;;;10.30;3.83;;;;;;;;;;4957315;28;20424;-81
2023/08/27 06:19:23;;;;;;;5.32;3.22;;;;;;;;;;4948780;29;20035;-80
2023/08/27 06:21:49;;;;;;;6.85;3.22;;;;;;;;;;4944980;29;20368;-83
2023/08/27 06:24:14;;;;;;;14.45;4.00;;;;;;;;;;4959958;29;20035;-81
2023/08/27 06:26:40;;;;;;;8.48;3.60;;;;;;;;;;4957830;29;20487;-81
2023/08/27 06:29:06;;;;;;;6.78;3.05;;;;;;;;;;4973624;28;20037;-81
2023/08/27 06:31:32;;;;;;;5.55;3.10;;;;;;;;;;4957361;29;20042;-82
2023/08/27 06:33:58;;;;;;;6.57;3.03;;;;;;;;;;4941332;29;20031;-81
2023/08/27 06:36:24;;;;;;;6.07;2.65;;;;;;;;;;4961253;29;20026;-81
2023/08/27 06:38:49;;;;;;;6.35;3.30;;;;;;;;;;4942917;29;20039;-81
2023/08/27 06:41:15;;;;;;;6.82;2.90;;;;;;;;;;4942168;29;20038;-83
2023/08/27 06:43:43;;;;;;;7.07;2.83;;;;;;;;;;4975417;28;20042;-82
2023/08/27 06:46:10;;;;;;;5.47;2.63;;;;;;;;;;4959675;29;20118;-80
2023/08/27 06:48:36;;;;;;;5.25;2.50;;;;;;;;;;4950553;29;20035;-81
2023/08/27 06:51:02;;;;;;;7.63;3.45;;;;;;;;;;4989850;28;20050;-82
2023/08/27 06:53:27;;;;;;;4.90;2.88;;;;;;;;;;4978779;29;20027;-82
2023/08/27 06:55:53;;;;;;;6.97;3.50;;;;;;;;;;4979701;28;20090;-81
2023/08/27 06:58:19;;;;;;;6.72;3.28;;;;;;;;;;4980466;28;20023;-82
2023/08/27 07:00:45;;;;;;;7.75;2.83;;;;;;;;;;4996061;28;20023;-81
2023/08/27 07:03:10;;;;;;;5.43;2.88;;;;;;;;;;4972161;28;20043;-83
2023/08/27 07:05:36;;;;;;;6.60;3.20;;;;;;;;;;4974991;28;20031;-81
2023/08/27 07:08:02;;;;;;;6.38;3.22;;;;;;;;;;4974008;28;20111;-82
2023/08/27 07:10:28;;;;;;;5.88;2.90;;;;;;;;;;4973062;28;20023;-83
2023/08/27 07:12:53;;;;;;;7.55;3.40;;;;;;;;;;4973318;28;20036;-81
2023/08/27 07:15:19;;;;;;;8.40;3.55;;;;;;;;;;4975289;28;20038;-82
2023/08/27 07:17:44;;;;;;;6.13;2.80;;;;;;;;;;4973066;28;20023;-82
2023/08/27 07:20:11;;;;;;;4.82;2.80;;;;;;;;;;4956572;29;20082;-81
2023/08/27 07:22:37;;;;;;;5.88;3.00;;;;;;;;;;4957585;29;20027;-81
2023/08/27 07:25:03;;;;;;;6.45;3.35;;;;;;;;;;4957364;29;20107;-82
2023/08/27 07:27:29;;;;;;;7.43;3.20;;;;;;;;;;4957466;29;20496;-82
2023/08/27 07:29:55;;;;;;;8.63;4.28;;;;;;;;;;4958975;29;20101;-80
2023/08/27 07:32:23;;;;;;;12.02;4.25;;;;;;;;;;4957904;29;20501;-83
2023/08/27 07:34:48;;;;;;;8.70;4.38;;;;;;;;;;4941205;29;20070;-82
2023/08/27 07:37:16;;;;;;;8.18;3.50;;;;;;;;;;4940742;29;20039;-81
2023/08/27 07:39:41;;;;;;;8.40;4.15;;;;;;;;;;4972972;28;20043;-83
2023/08/27 07:42:07;;;;;;;6.72;4.00;;;;;;;;;;4958051;29;20510;-81
2023/08/27 07:44:33;;;;;;;7.93;3.63;;;;;;;;;;4957091;29;20035;-81
2023/08/27 07:46:58;;;;;;;6.57;3.40;;;;;;;;;;4973317;28;20515;-81
2023/08/27 07:49:24;;;;;;;7.85;3.42;;;;;;;;;;4940813;29;20125;-82
2023/08/27 07:51:50;;;;;;;7.35;3.83;;;;;;;;;;4957344;29;20105;-82
2023/08/27 07:54:15;;;;;;;8.20;3.85;;;;;;;;;;4959307;29;20138;-83
2023/08/27 07:56:41;;;;;;;7.38;3.80;;;;;;;;;;4956255;29;20039;-82
2023/08/27 07:59:06;;;;;;;9.30;3.88;;;;;;;;;;4957847;29;20031;-81
2023/08/27 08:01:32;;;;;;;10.68;4.15;;;;;;;;;;4973787;28;20031;-81
2023/08/27 08:03:58;;;;;;;7.45;4.53;;;;;;;;;;4973888;28;20511;-81
2023/08/27 08:06:23;;;;;;;9.48;4.80;;;;;;;;;;4956724;29;20043;-80
2023/08/27 08:08:49;;;;;;;9.93;4.97;;;;;;;;;;4943098;29;20166;-80
2023/08/27 08:11:16;;;;;;;8.63;4.68;;;;;;;;;;4940499;29;20039;-83
2023/08/27 08:13:43;;;;;;;7.35;4.32;;;;;;;;;;4955846;29;20070;-81
2023/08/27 08:16:09;;;;;;;10.85;5.07;;;;;;;;;;4956831;29;20063;-82
2023/08/27 08:18:34;;;;;;;10.73;5.18;;;;;;;;;;4940878;29;20042;-81
2023/08/27 08:21:00;;;;;;;7.70;4.20;;;;;;;;;;4957125;29;20082;-83
2023/08/27 08:23:25;;;;;;;8.15;4.45;;;;;;;;;;4982385;28;20031;-81
2023/08/27 08:25:51;;;;;;;8.57;4.55;;;;;;;;;;4968379;29;20054;-80
2023/08/27 08:28:17;;;;;;;7.50;4.53;;;;;;;;;;4975204;29;20104;-80
2023/08/27 08:30:48;;;;;;;8.40;4.50;;;;;;;;;;4990458;28;20038;-82
2023/08/27 08:33:17;;;;;;;9.05;4.35;;;;;;;;;;4947959;29;20036;-80
2023/08/27 08:35:43;;;;;;;9.07;4.47;;;;;;;;;;4957439;28;20031;-82
2023/08/27 08:38:09;;;;;;;9.70;4.63;;;;;;;;;;4960792;28;20027;-81
2023/08/27 08:40:44;;;;;;;13.75;5.28;;;;;;;;;;4971934;28;20042;-81
2023/08/27 08:43:30;;;;;;;7.60;4.50;;;;;;;;;;4939966;29;20031;-81
2023/08/27 08:46:03;;;;;;;10.40;4.88;;;;;;;;;;4954944;29;20047;-81
2023/08/27 08:48:31;;;;;;;8.45;4.63;;;;;;;;;;4955555;29;20491;-82
2023/08/27 08:50:58;;;;;;;9.65;4.15;;;;;;;;;;4971617;28;20043;-82
2023/08/27 08:53:25;;;;;;;9.23;4.80;;;;;;;;;;4941598;29;20031;-81
2023/08/27 08:55:53;;;;;;;10.55;4.63;;;;;;;;;;4956588;29;20027;-81
2023/08/27 08:58:19;;;;;;;9.52;4.25;;;;;;;;;;4971964;28;20045;-81
2023/08/27 09:00:45;;;;;;;10.95;4.63;;;;;;;;;;4956876;29;20395;-81
2023/08/27 09:03:12;;;;;;;11.93;4.70;;;;;;;;;;4974266;28;20054;-81
2023/08/27 09:05:38;;;;;;;9.70;4.70;;;;;;;;;;4961946;29;20055;-81
2023/08/27 09:08:04;;;;;;;14.65;4.80;;;;;;;;;;4968155;28;20023;-80
2023/08/27 09:10:30;;;;;;;8.27;4.57;;;;;;;;;;4974446;29;20034;-81
2023/08/27 09:12:57;;;;;;;8.82;4.82;;;;;;;;;;4975539;29;20055;-81
2023/08/27 09:15:22;;;;;;;8.65;4.20;;;;;;;;;;4973849;29;20125;-80
2023/08/27 09:17:48;;;;;;;8.90;4.47;;;;;;;;;;5002478;28;20050;-82
2023/08/27 09:20:14;;;;;;;10.27;4.18;;;;;;;;;;4959690;28;20015;-82
2023/08/27 09:22:40;;;;;;;9.13;4.40;;;;;;;;;;4978540;28;20090;-80
2023/08/27 09:25:06;;;;;;;7.43;3.80;;;;;;;;;;4978690;28;20035;-80
2023/08/27 09:27:32;;;;;;;7.03;4.07;;;;;;;;;;4993671;28;20063;-81
2023/08/27 09:30:00;;;;;;;6.75;3.33;;;;;;;;;;4978780;28;20035;-80
2023/08/27 09:32:26;;;;;;;7.37;3.50;;;;;;;;;;4993593;28;20071;-81
2023/08/27 09:34:54;;;;;;;9.30;4.00;;;;;;;;;;4996699;23;20116;31
2023/08/27 09:37:20;;;;;;;;;;;;;;;;;;4961190;28;20510;-80
2023/08/27 09:39:46;;;;;;;12.10;3.72;;;;;;;;;;4960407;28;19922;-81
2023/08/27 09:42:12;;;;;;;7.63;3.90;;;;;;;;;;4959584;29;20082;-79
2023/08/27 09:44:37;;;;;;;8.98;3.90;;;;;;;;;;4959667;29;20023;-80
2023/08/27 09:47:07;;;;;;;6.65;3.47;;;;;;;;;;4961237;29;20039;-81
2023/08/27 09:49:38;;;;;;;10.55;4.20;;;;;;;;;;4945475;29;20063;-79
2023/08/27 09:52:04;;;;;;;8.75;3.70;;;;;;;;;;4944502;29;20039;-80
2023/08/27 09:54:30;;;;;;;13.77;4.30;;;;;;;;;;4961175;29;20047;-79
2023/08/27 09:57:02;;;;;;;10.93;3.70;;;;;;;;;;4960086;28;20380;-79
2023/08/27 09:59:28;;;;;;;6.88;3.38;;;;;;;;;;4945646;29;20032;-79
2023/08/27 10:01:54;;;;;;;7.47;3.60;;;;;;;;;;4946810;29;20031;-80
2023/08/27 10:04:20;;;;;;;6.93;3.17;;;;;;;;;;4946002;29;20125;-79
2023/08/27 10:06:49;;;;;;;7.93;3.60;;;;;;;;;;4933692;29;20035;-80
2023/08/27 10:09:14;;;;;;;6.15;3.22;;;;;;;;;;4967438;28;20027;-81
2023/08/27 10:11:47;;;;;;;6.18;3.00;;;;;;;;;;4966595;28;20035;-81
2023/08/27 10:14:13;;;;;;;9.48;3.53;;;;;;;;;;4947536;29;20039;-79
2023/08/27 10:16:39;;;;;;;6.85;3.05;;;;;;;;;;4962365;28;20055;-81
2023/08/27 10:19:04;;;;;;;6.80;3.30;;;;;;;;;;4948261;29;20055;-79
2023/08/27 10:21:33;;;;;;;7.53;3.30;;;;;;;;;;4965522;28;20123;-80
2023/08/27 10:23:58;;;;;;;7.03;3.75;;;;;;;;;;4948060;29;20050;-80
2023/08/27 10:26:24;;;;;;;6.28;3.15;;;;;;;;;;4963310;29;20479;-80
2023/08/27 10:28:51;;;;;;;6.18;3.15;;;;;;;;;;4964568;28;20042;-79
2023/08/27 10:31:17;;;;;;;7.90;3.27;;;;;;;;;;4963133;28;20035;-80
2023/08/27 10:33:43;;;;;;;6.03;3.22;;;;;;;;;;4961909;28;20322;-79
2023/08/27 10:36:11;;;;;;;7.40;3.22;;;;;;;;;;4962332;29;20549;-80
2023/08/27 10:38:37;;;;;;;6.30;2.70;;;;;;;;;;4958176;29;20078;-79
2023/08/27 10:41:04;;;;;;;7.97;2.63;;;;;;;;;;4958146;29;20031;-80
2023/08/27 10:43:33;;;;;;;8.18;2.50;;;;;;;;;;4957750;28;20501;-80
2023/08/27 10:46:10;;;;;;;5.00;2.67;;;;;;;;;;4963234;28;20040;-80
2023/08/27 10:48:36;;;;;;;6.05;2.55;;;;;;;;;;4969502;29;20140;-78
2023/08/27 10:51:09;;;;;;;9.48;2.80;;;;;;;;;;4966502;29;20035;-80
2023/08/27 10:53:53;;;;;;;5.80;2.72;;;;;;;;;;4965912;28;20035;-80
2023/08/27 10:56:31;;;;;;;5.57;2.47;;;;;;;;;;4944669;29;20042;-81
2023/08/27 10:58:58;;;;;;;8.23;2.38;;;;;;;;;;4941850;29;20046;-80
2023/08/27 11:01:25;;;;;;;9.93;2.95;;;;;;;;;;4941689;29;20051;-81
2023/08/27 11:03:53;;;;;;;7.45;3.00;;;;;;;;;;4959169;28;20038;-79
2023/08/27 11:06:20;;;;;;;6.40;2.90;;;;;;;;;;4958176;29;20038;-79
2023/08/27 11:08:52;;;;;;;9.32;3.25;;;;;;;;;;4958912;29;20032;-81
2023/08/27 11:11:22;;;;;;;5.95;2.15;;;;;;;;;;4958416;28;20038;-78
2023/08/27 11:13:47;;;;;;;6.63;3.40;;;;;;;;;;4959040;28;20110;-79
2023/08/27 11:16:16;;;;;;;6.22;2.88;;;;;;;;;;4969890;29;20062;-81
2023/08/27 11:18:49;;;;;;;6.95;2.80;;;;;;;;;;4965680;29;20042;-80
2023/08/27 11:21:18;;;;;;;6.03;3.03;;;;;;;;;;4950003;29;20075;-79
2023/08/27 11:23:45;;;;;;;8.75;2.70;;;;;;;;;;4973971;29;20054;-79
2023/08/27 11:26:11;;;;;;;5.80;2.35;;;;;;;;;;4958869;29;20094;-79
2023/08/27 11:28:38;;;;;;;6.55;2.83;;;;;;;;;;4972897;29;20039;-79
2023/08/27 11:31:04;;;;;;;4.50;2.72;;;;;;;;;;4970068;29;20502;-77
2023/08/27 11:33:29;;;;;;;6.13;3.20;;;;;;;;;;4959290;29;20027;-80
2023/08/27 11:35:57;;;;;;;4.60;2.50;;;;;;;;;;4957265;29;20027;-79
2023/08/27 11:38:25;;;;;;;6.32;3.05;;;;;;;;;;4958637;29;20031;-79
2023/08/27 11:40:51;;;;;;;;;;;;;;;;;;4957885;29;20067;-79
2023/08/27 11:43:23;;;;;;;5.90;2.92;;;;;;;;;;4958957;29;19910;-79
2023/08/27 11:45:48;;;;;;;6.35;2.55;;;;;;;;;;4958972;29;20035;-79
2023/08/27 11:48:14;;;;;;;8.45;3.03;;;;;;;;;;4961276;29;20031;-79
2023/08/27 11:50:42;;;;;;;5.80;2.75;;;;;;;;;;4963545;28;20039;-80
2023/08/27 11:53:07;;;;;;;6.13;2.40;;;;;;;;;;4951621;29;20462;-80
2023/08/27 11:55:33;;;;;;;5.47;2.92;;;;;;;;;;4956592;28;20125;-80
2023/08/27 11:58:00;;;;;;;7.05;2.78;;;;;;;;;;4974605;29;20063;-79
2023/08/27 12:00:26;;;;;;;7.32;3.53;;;;;;;;;;4977857;28;20039;-79
2023/08/27 12:02:53;;;;;;;5.97;3.13;;;;;;;;;;4977958;28;20038;-78
2023/08/27 12:05:18;;;;;;;6.82;2.80;;;;;;;;;;4961253;29;20039;-80
2023/08/27 12:07:44;;;;;;;7.78;2.78;;;;;;;;;;4974840;28;20043;-79
2023/08/27 12:10:11;;;;;;;5.90;2.80;;;;;;;;;;4965312;29;20043;-79
2023/08/27 12:12:40;;;;;;;9.27;3.30;;;;;;;;;;4964960;28;20023;-80
2023/08/27 12:15:06;;;;;;;8.40;3.20;;;;;;;;;;4949571;29;20031;-79
2023/08/27 12:17:35;;;;;;;3.58;2.33;;;;;;;;;;4965160;28;20204;-78
2023/08/27 12:20:05;;;;;;;4.85;2.70;;;;;;;;;;4944303;29;20023;-77
2023/08/27 12:22:39;;;;;;;7.13;2.95;;;;;;;;;;4943589;29;20102;-80
2023/08/27 12:25:05;;;;;;;8.10;3.10;;;;;;;;;;4958628;29;20043;-80
2023/08/27 12:27:32;;;;;;;7.47;3.30;;;;;;;;;;4928309;29;20123;-79
2023/08/27 12:29:57;;;;;;;7.47;3.10;;;;;;;;;;4942877;29;20055;-79
2023/08/27 12:32:25;;;;;;;7.70;3.72;;;;;;;;;;4959474;29;20039;-78
2023/08/27 12:34:51;;;;;;;6.00;3.30;;;;;;;;;;4959060;29;20371;-79
2023/08/27 12:37:17;;;;;;;7.30;3.13;;;;;;;;;;4958019;29;20027;-79
2023/08/27 12:39:43;;;;;;;5.43;3.28;;;;;;;;;;4958387;29;20035;-79
2023/08/27 12:42:09;;;;;;;5.93;3.00;;;;;;;;;;4943262;29;20082;-78
2023/08/27 12:44:35;;;;;;;7.93;3.28;;;;;;;;;;4943331;29;20316;-79
2023/08/27 12:47:01;;;;;;;7.18;3.10;;;;;;;;;;4943258;29;20070;-79
2023/08/27 12:49:27;;;;;;;4.13;2.70;;;;;;;;;;4958038;29;20110;-80
2023/08/27 12:51:53;;;;;;;6.32;2.60;;;;;;;;;;4957980;29;20031;-79
2023/08/27 12:54:20;;;;;;;6.10;2.63;;;;;;;;;;4956794;29;20082;-78
2023/08/27 12:56:45;;;;;;;7.28;2.90;;;;;;;;;;4942547;29;20118;-80
2023/08/27 12:59:11;;;;;;;3.25;1.58;;;;;;;;;;4960237;29;20488;-80
2023/08/27 13:01:39;;;;;;;4.18;2.10;;;;;;;;;;4928617;29;20038;-81
2023/08/27 13:04:04;;;;;;;4.15;2.08;;;;;;;;;;4947661;29;20035;-80
2023/08/27 13:06:30;;;;;;;8.48;3.10;;;;;;;;;;4943791;29;20035;-80
2023/08/27 13:08:55;;;;;;;4.28;1.88;;;;;;;;;;4947131;29;20471;-79
2023/08/27 13:11:21;;;;;;;8.23;2.55;;;;;;;;;;4965068;29;20091;-79
2023/08/27 13:13:47;;;;;;;4.93;1.90;;;;;;;;;;4930743;29;20105;-79
2023/08/27 13:16:13;;;;;;;3.35;1.70;;;;;;;;;;4961615;28;20074;-79
2023/08/27 13:18:38;;;;;;;5.32;2.33;;;;;;;;;;4944999;29;20051;-79
2023/08/27 13:21:05;;;;;;;3.75;1.80;;;;;;;;;;4962540;28;20062;-79
2023/08/27 13:23:30;;;;;;;4.03;1.98;;;;;;;;;;4944702;29;20106;-79
2023/08/27 13:25:56;;;;;;;5.13;1.77;;;;;;;;;;4963117;29;20122;-80
2023/08/27 13:28:21;;;;;;;4.53;1.75;;;;;;;;;;4946330;29;20032;-79
2023/08/27 13:30:47;;;;;;;4.60;2.10;;;;;;;;;;4962717;29;20038;-80
2023/08/27 13:33:12;;;;;;;6.63;2.17;;;;;;;;;;4946768;29;20043;-77
2023/08/27 13:35:38;;;;;;;3.78;1.70;;;;;;;;;;4960633;29;20109;-77
2023/08/27 13:38:04;;;;;;;2.60;1.48;;;;;;;;;;4960746;29;20031;-78
2023/08/27 13:40:29;;;;;;;6.38;1.80;;;;;;;;;;4966730;28;20103;-79
2023/08/27 13:42:55;;;;;;;3.63;1.73;;;;;;;;;;4969314;29;20044;-79
2023/08/27 13:45:21;;;;;;;3.85;1.40;;;;;;;;;;4978212;29;20074;-78
2023/08/27 13:47:47;;;;;;;5.72;1.73;;;;;;;;;;4969559;28;20050;-80
2023/08/27 13:50:12;;;;;;;6.75;1.80;;;;;;;;;;4962898;28;20031;-79
2023/08/27 13:52:38;;;;;;;3.35;1.50;;;;;;;;;;4960845;28;20081;-79
2023/08/27 13:55:04;;;;;;;4.75;1.85;;;;;;;;;;4959781;29;20056;-79
2023/08/27 13:57:29;;;;;;;4.97;1.40;;;;;;;;;;4961369;29;20031;-80
2023/08/27 13:59:55;;;;;;;2.92;1.30;;;;;;;;;;4960883;29;20050;-77
2023/08/27 14:02:20;;;;;;;5.03;1.58;;;;;;;;;;4944973;29;20031;-78
2023/08/27 14:04:46;;;;;;;3.47;1.30;;;;;;;;;;4960357;29;20034;-77
2023/08/27 14:07:11;;;;;;;4.85;1.73;;;;;;;;;;4943916;29;20043;-79
2023/08/27 14:09:37;;;;;;;2.80;1.40;;;;;;;;;;4944757;29;20035;-77
2023/08/27 14:12:03;;;;;;;4.85;1.42;;;;;;;;;;4944995;29;20050;-79
2023/08/27 14:14:28;;;;;;;2.75;1.33;;;;;;;;;;4960553;28;20038;-78
2023/08/27 14:16:54;;;;;;;2.38;1.40;;;;;;;;;;4961803;28;20106;-78
2023/08/27 14:19:19;;;;;;;3.92;1.55;;;;;;;;;;4960202;28;20035;-80
2023/08/27 14:21:45;;;;;;;2.88;1.23;;;;;;;;;;4961047;29;20027;-78
2023/08/27 14:24:10;;;;;;;5.35;1.58;;;;;;;;;;4959835;29;20082;-79
2023/08/27 14:26:37;;;;;;;4.18;1.50;;;;;;;;;;4959281;29;20110;-77
2023/08/27 14:29:03;;;;;;;3.42;1.88;;;;;;;;;;4961705;29;20042;-79
2023/08/27 14:31:29;;;;;;;10.50;2.47;;;;;;;;;;4968560;29;20431;-80
2023/08/27 14:33:54;;;;;;;5.03;1.70;;;;;;;;;;4972744;28;20050;-81
2023/08/27 14:36:20;;;;;;;3.47;1.45;;;;;;;;;;4963269;28;20034;-79
2023/08/27 14:38:45;;;;;;;5.28;1.40;;;;;;;;;;4979187;28;20015;-80